createdAt,value
2023-05-03T00:00:26.814Z,101120.95
2023-05-03T00:01:46.161Z,101113.17
2023-05-03T00:02:49.227Z,101123.17
2023-05-03T00:03:55.034Z,101118.65
2023-05-03T00:05:01.017Z,101113.17
2023-05-03T00:06:14.652Z,101113.81
2023-05-03T00:07:18.586Z,101116.13
2023-05-03T00:08:21.953Z,101114.70
2023-05-03T00:09:24.864Z,101118.98
2023-05-03T00:10:27.802Z,101126.63
2023-05-03T00:11:30.762Z,101126.98
2023-05-03T00:12:33.637Z,101124.16
2023-05-03T00:13:36.733Z,101124.15
2023-05-03T00:14:39.558Z,101122.23
2023-05-03T00:15:42.402Z,101122.11
2023-05-03T00:16:45.345Z,101122.57
2023-05-03T00:17:48.396Z,101124.13
2023-05-03T00:18:51.227Z,101119.29
2023-05-03T00:19:56.253Z,101120.20
2023-05-03T00:20:59.781Z,101120.54
2023-05-03T00:22:02.678Z,101120.45
2023-05-03T00:23:05.788Z,101123.60
2023-05-03T00:24:08.612Z,101127.23
2023-05-03T00:25:11.493Z,101130.25
2023-05-03T00:26:14.485Z,101131.49
2023-05-03T00:27:18.909Z,101131.73
2023-05-03T00:28:22.188Z,101129.87
2023-05-03T00:29:25.117Z,101127.44
2023-05-03T00:30:28.071Z,101129.14
2023-05-03T00:31:31.038Z,101123.77
2023-05-03T00:32:34.022Z,101122.44
2023-05-03T00:33:37.951Z,101124.84
2023-05-03T00:34:41.285Z,101117.97
2023-05-03T00:35:44.932Z,101115.17
2023-05-03T00:36:47.871Z,101114.36
2023-05-03T00:37:50.834Z,101111.04
2023-05-03T00:38:54.005Z,101110.65
2023-05-03T00:39:56.891Z,101111.73
2023-05-03T00:40:59.719Z,101102.87
2023-05-03T00:42:04.164Z,101105.22
2023-05-03T00:43:07.747Z,101097.40
2023-05-03T00:44:10.724Z,101101.83
2023-05-03T00:45:13.576Z,101103.09
2023-05-03T00:46:17.610Z,101103.33
2023-05-03T00:47:22.506Z,101104.41
2023-05-03T00:48:26.032Z,101106.89
2023-05-03T00:49:28.918Z,101111.86
2023-05-03T00:50:31.828Z,101108.58
2023-05-03T00:51:35.474Z,101117.14
2023-05-03T00:52:40.591Z,101115.95
2023-05-03T00:53:44.823Z,101108.73
2023-05-03T00:54:47.747Z,101119.20
2023-05-03T00:55:55.754Z,101118.58
2023-05-03T00:56:59.303Z,101114.04
2023-05-03T00:58:02.171Z,101125.80
2023-05-03T00:59:06.426Z,101125.70
2023-05-03T01:00:10.792Z,101124.36
2023-05-03T01:01:13.749Z,101125.30
2023-05-03T01:02:17.010Z,101131.29
2023-05-03T01:03:19.932Z,101134.72
2023-05-03T01:04:23.627Z,101132.62
2023-05-03T01:05:33.053Z,101131.34
2023-05-03T01:06:38.662Z,101130.66
2023-05-03T01:08:34.271Z,101139.61
2023-05-03T01:09:49.381Z,101134.48
2023-05-03T01:10:59.623Z,101133.40
2023-05-03T01:12:12.055Z,101139.30
2023-05-03T01:13:33.600Z,101140.74
2023-05-03T01:14:41.519Z,101141.55
2023-05-03T01:15:52.872Z,101140.39
2023-05-03T01:17:11.852Z,101140.86
2023-05-03T01:18:21.689Z,101143.04
2023-05-03T01:19:51.538Z,101142.66
2023-05-03T01:20:56.468Z,101146.85
2023-05-03T01:22:26.532Z,101147.52
2023-05-03T01:23:36.507Z,101147.55
2023-05-03T01:24:41.877Z,101148.14
2023-05-03T01:25:44.846Z,101156.82
2023-05-03T01:26:47.711Z,101152.40
2023-05-03T01:27:51.145Z,101157.55
2023-05-03T01:28:55.340Z,101151.29
2023-05-03T01:29:58.219Z,101155.19
2023-05-03T01:31:01.307Z,101161.17
2023-05-03T01:32:09.813Z,101160.54
2023-05-03T01:33:33.792Z,101152.61
2023-05-03T01:35:01.263Z,101155.12
2023-05-03T01:36:21.006Z,101152.04
2023-05-03T01:37:23.950Z,101154.67
2023-05-03T01:38:28.858Z,101161.65
2023-05-03T01:39:39.452Z,101162.77
2023-05-03T01:40:50.268Z,101161.66
2023-05-03T01:41:54.268Z,101163.38
2023-05-03T01:42:57.866Z,101167.54
2023-05-03T01:44:01.620Z,101169.16
2023-05-03T01:45:05.636Z,101173.58
2023-05-03T01:46:09.022Z,101174.05
2023-05-03T01:47:15.276Z,101173.23
2023-05-03T01:48:19.828Z,101174.54
2023-05-03T01:49:22.762Z,101178.38
2023-05-03T01:50:25.748Z,101174.80
2023-05-03T01:51:28.568Z,101179.29
2023-05-03T01:52:31.548Z,101174.65
2023-05-03T01:53:34.398Z,101173.16
2023-05-03T01:54:38.009Z,101178.48
2023-05-03T01:55:40.844Z,101173.81
2023-05-03T01:56:44.491Z,101176.55
2023-05-03T01:57:47.333Z,101174.94
2023-05-03T01:58:50.215Z,101172.23
2023-05-03T01:59:53.414Z,101168.39
2023-05-03T02:00:57.210Z,101170.45
2023-05-03T02:02:00.090Z,101164.02
2023-05-03T02:03:03.033Z,101164.81
2023-05-03T02:04:05.943Z,101167.54
2023-05-03T02:05:10.487Z,101162.06
2023-05-03T02:06:13.400Z,101164.91
2023-05-03T02:07:16.300Z,101162.70
2023-05-03T02:08:19.158Z,101163.35
2023-05-03T02:09:22.493Z,101161.17
2023-05-03T02:10:25.830Z,101163.42
2023-05-03T02:11:31.682Z,101163.73
2023-05-03T02:12:34.741Z,101169.73
2023-05-03T02:13:38.314Z,101163.15
2023-05-03T02:14:41.272Z,101163.88
2023-05-03T02:15:45.195Z,101165.05
2023-05-03T02:16:48.676Z,101162.70
2023-05-03T02:17:51.625Z,101159.60
2023-05-03T02:18:55.869Z,101162.11
2023-05-03T02:19:58.688Z,101153.52
2023-05-03T02:21:01.954Z,101156.29
2023-05-03T02:22:04.817Z,101154.33
2023-05-03T02:23:07.757Z,101157.45
2023-05-03T02:24:10.678Z,101158.23
2023-05-03T02:25:13.507Z,101164.52
2023-05-03T02:26:16.453Z,101172.54
2023-05-03T02:27:19.312Z,101175.67
2023-05-03T02:28:22.619Z,101183.70
2023-05-03T02:29:25.641Z,101189.94
2023-05-03T02:30:29.006Z,101182.15
2023-05-03T02:31:32.444Z,101183.57
2023-05-03T02:32:36.121Z,101176.80
2023-05-03T02:33:39.306Z,101177.41
2023-05-03T02:34:42.202Z,101175.14
2023-05-03T02:35:45.429Z,101179.11
2023-05-03T02:36:48.337Z,101172.77
2023-05-03T02:37:51.493Z,101176.87
2023-05-03T02:38:54.923Z,101179.48
2023-05-03T02:39:58.162Z,101182.66
2023-05-03T02:41:01.132Z,101178.12
2023-05-03T02:42:04.093Z,101184.89
2023-05-03T02:43:07.016Z,101185.34
2023-05-03T02:44:09.881Z,101186.30
2023-05-03T02:45:12.735Z,101190.04
2023-05-03T02:46:15.744Z,101185.02
2023-05-03T02:47:18.854Z,101184.00
2023-05-03T02:48:21.676Z,101181.98
2023-05-03T02:49:24.703Z,101182.87
2023-05-03T02:50:27.751Z,101179.81
2023-05-03T02:51:31.087Z,101174.48
2023-05-03T02:52:33.953Z,101175.13
2023-05-03T02:53:36.905Z,101179.06
2023-05-03T02:54:40.086Z,101174.80
2023-05-03T02:55:44.799Z,101172.27
2023-05-03T02:56:47.997Z,101171.55
2023-05-03T02:57:50.887Z,101171.38
2023-05-03T02:58:55.310Z,101167.14
2023-05-03T02:59:58.783Z,101169.88
2023-05-03T03:01:02.255Z,101171.50
2023-05-03T03:02:05.371Z,101168.15
2023-05-03T03:03:09.019Z,101167.45
2023-05-03T03:04:11.930Z,101170.67
2023-05-03T03:05:14.821Z,101170.83
2023-05-03T03:06:18.569Z,101172.26
2023-05-03T03:07:21.523Z,101174.42
2023-05-03T03:08:25.072Z,101175.14
2023-05-03T03:09:28.146Z,101179.41
2023-05-03T03:10:31.571Z,101186.53
2023-05-03T03:11:35.277Z,101188.51
2023-05-03T03:12:38.736Z,101192.87
2023-05-03T03:13:41.954Z,101190.33
2023-05-03T03:14:45.834Z,101192.87
2023-05-03T03:15:48.724Z,101203.30
2023-05-03T03:16:52.275Z,101195.30
2023-05-03T03:17:58.011Z,101192.86
2023-05-03T03:19:01.096Z,101197.21
2023-05-03T03:20:06.361Z,101200.25
2023-05-03T03:21:09.365Z,101197.63
2023-05-03T03:22:12.452Z,101196.63
2023-05-03T03:23:15.448Z,101200.14
2023-05-03T03:24:18.533Z,101204.73
2023-05-03T03:25:21.608Z,101195.48
2023-05-03T03:26:25.320Z,101196.73
2023-05-03T03:27:28.654Z,101202.15
2023-05-03T03:28:31.497Z,101198.54
2023-05-03T03:29:35.588Z,101200.70
2023-05-03T03:30:39.100Z,101199.86
2023-05-03T03:31:48.515Z,101208.83
2023-05-03T03:32:53.030Z,101204.02
2023-05-03T03:33:59.742Z,101210.74
2023-05-03T03:35:03.361Z,101208.42
2023-05-03T03:36:08.009Z,101212.46
2023-05-03T03:37:11.725Z,101209.08
2023-05-03T03:38:16.325Z,101207.80
2023-05-03T03:39:24.247Z,101210.13
2023-05-03T03:40:27.261Z,101210.83
2023-05-03T03:41:32.060Z,101212.70
2023-05-03T03:42:35.133Z,101223.77
2023-05-03T03:43:38.013Z,101215.89
2023-05-03T03:44:42.267Z,101220.63
2023-05-03T03:45:45.487Z,101220.97
2023-05-03T03:46:48.897Z,101227.27
2023-05-03T03:47:53.710Z,101230.10
2023-05-03T03:48:57.112Z,101230.16
2023-05-03T03:50:02.222Z,101238.54
2023-05-03T03:51:06.878Z,101228.81
2023-05-03T03:52:13.309Z,101228.91
2023-05-03T03:53:16.225Z,101231.88
2023-05-03T03:54:19.895Z,101231.94
2023-05-03T03:55:23.229Z,101241.36
2023-05-03T03:56:27.279Z,101235.95
2023-05-03T03:57:31.712Z,101242.69
2023-05-03T03:58:34.830Z,101240.66
2023-05-03T03:59:37.896Z,101247.60
2023-05-03T04:00:41.031Z,101254.51
2023-05-03T04:01:47.449Z,101256.30
2023-05-03T04:02:50.511Z,101248.83
2023-05-03T04:03:54.423Z,101256.95
2023-05-03T04:04:57.366Z,101249.98
2023-05-03T04:06:00.379Z,101253.98
2023-05-03T04:07:04.487Z,101255.27
2023-05-03T04:08:07.448Z,101258.80
2023-05-03T04:09:11.159Z,101260.21
2023-05-03T04:10:14.629Z,101257.39
2023-05-03T04:11:17.695Z,101261.86
2023-05-03T04:12:25.577Z,101267.45
2023-05-03T04:13:28.732Z,101260.85
2023-05-03T04:14:31.728Z,101262.70
2023-05-03T04:15:34.622Z,101259.08
2023-05-03T04:16:38.608Z,101265.07
2023-05-03T04:17:42.265Z,101265.35
2023-05-03T04:18:46.525Z,101263.52
2023-05-03T04:19:49.756Z,101257.92
2023-05-03T04:20:52.700Z,101254.73
2023-05-03T04:21:56.482Z,101260.23
2023-05-03T04:23:00.765Z,101259.37
2023-05-03T04:24:07.322Z,101258.12
2023-05-03T04:25:17.294Z,101249.04
2023-05-03T04:26:31.246Z,101247.42
2023-05-03T04:27:38.663Z,101251.58
2023-05-03T04:28:42.500Z,101257.41
2023-05-03T04:29:46.053Z,101264.16
2023-05-03T04:30:49.499Z,101261.36
2023-05-03T04:31:56.979Z,101259.77
2023-05-03T04:33:00.844Z,101260.53
2023-05-03T04:34:04.819Z,101267.34
2023-05-03T04:35:09.719Z,101268.08
2023-05-03T04:36:16.228Z,101272.89
2023-05-03T04:37:23.003Z,101280.54
2023-05-03T04:38:26.195Z,101282.50
2023-05-03T04:39:29.064Z,101276.04
2023-05-03T04:40:32.128Z,101279.66
2023-05-03T04:41:42.217Z,101280.98
2023-05-03T04:42:45.591Z,101283.98
2023-05-03T04:43:48.442Z,101286.98
2023-05-03T04:44:51.525Z,101291.14
2023-05-03T04:45:54.601Z,101283.04
2023-05-03T04:46:59.916Z,101290.20
2023-05-03T04:48:05.527Z,101286.30
2023-05-03T04:49:08.793Z,101287.10
2023-05-03T04:50:11.655Z,101286.20
2023-05-03T04:51:16.871Z,101292.36
2023-05-03T04:52:21.049Z,101288.60
2023-05-03T04:53:24.164Z,101287.02
2023-05-03T04:54:34.912Z,101285.50
2023-05-03T04:55:37.771Z,101288.75
2023-05-03T04:56:40.799Z,101283.95
2023-05-03T04:57:47.939Z,101294.75
2023-05-03T04:58:50.837Z,101294.12
2023-05-03T04:59:56.507Z,101293.58
2023-05-03T05:00:59.970Z,101299.69
2023-05-03T05:02:05.567Z,101299.83
2023-05-03T05:03:09.292Z,101297.98
2023-05-03T05:04:12.274Z,101301.45
2023-05-03T05:05:20.402Z,101299.00
2023-05-03T05:06:23.987Z,101302.27
2023-05-03T05:07:27.037Z,101310.17
2023-05-03T05:08:30.469Z,101302.59
2023-05-03T05:09:33.559Z,101307.04
2023-05-03T05:10:40.896Z,101308.57
2023-05-03T05:11:44.892Z,101307.77
2023-05-03T05:12:47.880Z,101305.48
2023-05-03T05:13:50.760Z,101305.66
2023-05-03T05:14:54.118Z,101308.04
2023-05-03T05:15:57.254Z,101310.72
2023-05-03T05:17:00.349Z,101316.76
2023-05-03T05:18:03.335Z,101320.79
2023-05-03T05:19:06.542Z,101319.48
2023-05-03T05:20:12.564Z,101316.35
2023-05-03T05:21:17.416Z,101316.42
2023-05-03T05:22:21.026Z,101316.91
2023-05-03T05:23:29.222Z,101311.79
2023-05-03T05:24:32.280Z,101318.69
2023-05-03T05:25:35.151Z,101320.00
2023-05-03T05:26:38.585Z,101317.20
2023-05-03T05:27:42.089Z,101317.98
2023-05-03T05:28:44.960Z,101317.24
2023-05-03T05:29:47.827Z,101321.23
2023-05-03T05:30:50.740Z,101316.41
2023-05-03T05:31:54.159Z,101319.22
2023-05-03T05:32:57.173Z,101323.55
2023-05-03T05:34:00.211Z,101320.02
2023-05-03T05:35:03.769Z,101315.48
2023-05-03T05:36:07.521Z,101319.20
2023-05-03T05:37:10.656Z,101314.19
2023-05-03T05:38:14.147Z,101320.38
2023-05-03T05:39:17.720Z,101316.11
2023-05-03T05:40:21.513Z,101315.30
2023-05-03T05:41:28.604Z,101315.70
2023-05-03T05:42:31.517Z,101318.40
2023-05-03T05:43:34.620Z,101318.73
2023-05-03T05:44:37.675Z,101321.15
2023-05-03T05:45:40.885Z,101320.90
2023-05-03T05:46:43.783Z,101321.94
2023-05-03T05:47:47.294Z,101331.82
2023-05-03T05:48:51.490Z,101328.80
2023-05-03T05:49:54.950Z,101337.92
2023-05-03T05:50:58.064Z,101333.13
2023-05-03T05:52:01.044Z,101335.88
2023-05-03T05:53:04.525Z,101341.30
2023-05-03T05:54:11.025Z,101339.36
2023-05-03T05:55:15.934Z,101338.77
2023-05-03T05:56:20.397Z,101343.89
2023-05-03T05:57:23.365Z,101343.85
2023-05-03T05:58:26.418Z,101343.56
2023-05-03T05:59:31.517Z,101342.62
2023-05-03T06:00:35.291Z,101344.84
2023-05-03T06:01:41.846Z,101350.53
2023-05-03T06:02:45.940Z,101340.84
2023-05-03T06:03:52.687Z,101349.67
2023-05-03T06:04:56.347Z,101345.16
2023-05-03T06:05:59.427Z,101347.17
2023-05-03T06:07:02.346Z,101344.83
2023-05-03T06:08:05.329Z,101350.17
2023-05-03T06:09:22.983Z,101351.98
2023-05-03T06:10:29.211Z,101348.76
2023-05-03T06:11:33.949Z,101356.75
2023-05-03T06:12:37.031Z,101359.07
2023-05-03T06:13:42.153Z,101356.45
2023-05-03T06:15:01.028Z,101363.38
2023-05-03T06:16:05.871Z,101360.08
2023-05-03T06:17:08.873Z,101362.77
2023-05-03T06:18:11.830Z,101367.42
2023-05-03T06:19:14.904Z,101364.25
2023-05-03T06:20:18.508Z,101359.27
2023-05-03T06:21:22.736Z,101364.56
2023-05-03T06:22:25.760Z,101360.48
2023-05-03T06:23:29.273Z,101364.34
2023-05-03T06:24:33.715Z,101364.34
2023-05-03T06:25:36.626Z,101364.23
2023-05-03T06:26:40.232Z,101373.42
2023-05-03T06:27:43.666Z,101371.48
2023-05-03T06:28:47.357Z,101370.14
2023-05-03T06:29:50.720Z,101366.13
2023-05-03T06:30:53.647Z,101371.16
2023-05-03T06:31:56.674Z,101370.86
2023-05-03T06:32:59.902Z,101374.01
2023-05-03T06:34:03.848Z,101373.63
2023-05-03T06:35:07.827Z,101373.19
2023-05-03T06:36:10.962Z,101367.23
2023-05-03T06:37:14.303Z,101371.11
2023-05-03T06:38:18.059Z,101366.83
2023-05-03T06:39:21.102Z,101363.33
2023-05-03T06:40:26.014Z,101361.14
2023-05-03T06:41:28.886Z,101363.27
2023-05-03T06:42:31.839Z,101360.89
2023-05-03T06:43:55.452Z,101360.80
2023-05-03T06:44:59.739Z,101361.77
2023-05-03T06:46:03.334Z,101367.52
2023-05-03T06:47:06.595Z,101369.09
2023-05-03T06:48:10.071Z,101368.33
2023-05-03T06:49:14.016Z,101369.34
2023-05-03T06:50:16.905Z,101367.71
2023-05-03T06:51:19.996Z,101372.65
2023-05-03T06:52:22.897Z,101369.64
2023-05-03T06:53:26.113Z,101373.27
2023-05-03T06:54:29.137Z,101375.52
2023-05-03T06:55:33.158Z,101373.20
2023-05-03T06:56:36.684Z,101378.34
2023-05-03T06:57:41.586Z,101380.65
2023-05-03T06:58:44.513Z,101376.36
2023-05-03T06:59:47.359Z,101377.45
2023-05-03T07:00:54.060Z,101378.39
2023-05-03T07:01:57.029Z,101371.15
2023-05-03T07:03:00.401Z,101372.57
2023-05-03T07:04:03.428Z,101385.60
2023-05-03T07:05:07.184Z,101381.15
2023-05-03T07:06:10.342Z,101381.26
2023-05-03T07:07:13.324Z,101382.95
2023-05-03T07:08:16.285Z,101389.14
2023-05-03T07:09:21.983Z,101384.05
2023-05-03T07:10:31.384Z,101385.38
2023-05-03T07:11:37.121Z,101384.55
2023-05-03T07:12:40.000Z,101380.71
2023-05-03T07:13:42.836Z,101379.00
2023-05-03T07:14:46.137Z,101381.14
2023-05-03T07:15:49.241Z,101379.19
2023-05-03T07:16:52.167Z,101379.17
2023-05-03T07:17:55.015Z,101381.68
2023-05-03T07:18:57.853Z,101380.05
2023-05-03T07:20:00.828Z,101378.70
2023-05-03T07:21:07.255Z,101381.00
2023-05-03T07:22:12.077Z,101381.77
2023-05-03T07:23:15.580Z,101385.27
2023-05-03T07:24:19.119Z,101383.23
2023-05-03T07:25:22.139Z,101380.88
2023-05-03T07:26:26.615Z,101383.71
2023-05-03T07:27:29.519Z,101382.40
2023-05-03T07:28:32.489Z,101383.77
2023-05-03T07:29:35.852Z,101382.31
2023-05-03T07:30:38.736Z,101382.35
2023-05-03T07:31:41.598Z,101387.50
2023-05-03T07:32:44.617Z,101389.84
2023-05-03T07:33:47.722Z,101387.55
2023-05-03T07:34:51.057Z,101386.73
2023-05-03T07:35:53.899Z,101386.79
2023-05-03T07:36:56.885Z,101384.27
2023-05-03T07:37:59.816Z,101386.02
2023-05-03T07:39:02.655Z,101384.95
2023-05-03T07:40:07.102Z,101382.95
2023-05-03T07:41:10.590Z,101381.15
2023-05-03T07:42:13.661Z,101383.54
2023-05-03T07:43:18.626Z,101384.96
2023-05-03T07:44:22.700Z,101387.98
2023-05-03T07:45:25.824Z,101387.69
2023-05-03T07:46:31.281Z,101382.58
2023-05-03T07:47:37.849Z,101387.39
2023-05-03T07:48:40.807Z,101385.30
2023-05-03T07:49:43.899Z,101382.14
2023-05-03T07:50:47.141Z,101381.15
2023-05-03T07:51:50.117Z,101384.52
2023-05-03T07:52:53.572Z,101383.75
2023-05-03T07:53:56.640Z,101390.55
2023-05-03T07:55:00.324Z,101390.45
2023-05-03T07:56:03.434Z,101391.16
2023-05-03T07:57:07.347Z,101389.02
2023-05-03T07:58:10.255Z,101391.95
2023-05-03T07:59:13.198Z,101381.89
2023-05-03T08:00:17.917Z,101382.95
2023-05-03T08:01:24.213Z,101386.94
2023-05-03T08:02:27.415Z,101392.08
2023-05-03T08:03:30.993Z,101389.83
2023-05-03T08:04:34.103Z,101387.29
2023-05-03T08:05:37.797Z,101391.86
2023-05-03T08:06:40.798Z,101388.70
2023-05-03T08:07:44.486Z,101392.13
2023-05-03T08:08:47.357Z,101390.14
2023-05-03T08:09:53.487Z,101386.99
2023-05-03T08:10:56.327Z,101384.51
2023-05-03T08:11:59.604Z,101380.31
2023-05-03T08:13:02.526Z,101383.77
2023-05-03T08:14:05.625Z,101383.48
2023-05-03T08:15:08.957Z,101381.95
2023-05-03T08:16:13.594Z,101389.85
2023-05-03T08:17:16.535Z,101387.67
2023-05-03T08:18:20.974Z,101387.92
2023-05-03T08:19:25.581Z,101389.84
2023-05-03T08:20:28.530Z,101388.04
2023-05-03T08:21:31.381Z,101388.51
2023-05-03T08:22:36.945Z,101388.44
2023-05-03T08:23:39.781Z,101389.27
2023-05-03T08:24:43.427Z,101388.76
2023-05-03T08:25:46.257Z,101389.20
2023-05-03T08:26:50.276Z,101390.14
2023-05-03T08:27:53.170Z,101386.38
2023-05-03T08:28:56.286Z,101384.63
2023-05-03T08:30:01.324Z,101393.69
2023-05-03T08:31:05.151Z,101392.20
2023-05-03T08:32:08.454Z,101390.48
2023-05-03T08:33:11.512Z,101388.88
2023-05-03T08:34:14.324Z,101386.44
2023-05-03T08:35:17.342Z,101388.18
2023-05-03T08:36:20.434Z,101389.10
2023-05-03T08:37:24.028Z,101387.13
2023-05-03T08:38:27.637Z,101387.50
2023-05-03T08:39:31.716Z,101377.36
2023-05-03T08:40:37.517Z,101381.95
2023-05-03T08:41:40.467Z,101390.38
2023-05-03T08:42:44.554Z,101388.71
2023-05-03T08:43:53.540Z,101391.83
2023-05-03T08:44:56.522Z,101389.53
2023-05-03T08:45:59.693Z,101398.77
2023-05-03T08:47:04.932Z,101393.73
2023-05-03T08:48:07.871Z,101397.40
2023-05-03T08:49:13.737Z,101400.70
2023-05-03T08:50:16.740Z,101400.48
2023-05-03T08:51:24.265Z,101400.13
2023-05-03T08:52:27.196Z,101399.24
2023-05-03T08:53:30.099Z,101396.90
2023-05-03T08:54:33.003Z,101399.14
2023-05-03T08:55:36.063Z,101390.89
2023-05-03T08:56:44.134Z,101400.38
2023-05-03T08:57:47.299Z,101397.31
2023-05-03T08:58:50.133Z,101392.52
2023-05-03T08:59:57.230Z,101398.09
2023-05-03T09:01:08.028Z,101400.73
2023-05-03T09:02:12.346Z,101400.96
2023-05-03T09:03:15.698Z,101396.98
2023-05-03T09:04:18.740Z,101394.80
2023-05-03T09:05:21.652Z,101397.92
2023-05-03T09:06:28.574Z,101396.66
2023-05-03T09:07:31.553Z,101394.94
2023-05-03T09:08:43.876Z,101395.47
2023-05-03T09:09:47.463Z,101396.61
2023-05-03T09:10:50.436Z,101390.22
2023-05-03T09:11:53.304Z,101398.23
2023-05-03T09:13:03.679Z,101404.00
2023-05-03T09:14:13.486Z,101410.57
2023-05-03T09:15:22.439Z,101404.95
2023-05-03T09:16:30.281Z,101411.92
2023-05-03T09:17:33.647Z,101398.91
2023-05-03T09:18:37.664Z,101403.73
2023-05-03T09:19:52.697Z,101397.20
2023-05-03T09:20:59.264Z,101393.21
2023-05-03T09:22:07.740Z,101389.84
2023-05-03T09:23:10.697Z,101386.08
2023-05-03T09:24:19.456Z,101397.34
2023-05-03T09:25:22.385Z,101394.95
2023-05-03T09:26:28.989Z,101403.90
2023-05-03T09:27:32.239Z,101415.08
2023-05-03T09:28:43.016Z,101409.12
2023-05-03T09:29:46.202Z,101404.99
2023-05-03T09:30:50.561Z,101406.36
2023-05-03T09:32:01.844Z,101404.39
2023-05-03T09:33:05.103Z,101404.50
2023-05-03T09:34:23.265Z,101410.66
2023-05-03T09:35:26.143Z,101412.83
2023-05-03T09:36:44.627Z,101410.26
2023-05-03T09:37:47.470Z,101407.30
2023-05-03T09:38:52.507Z,101405.44
2023-05-03T09:40:05.779Z,101406.26
2023-05-03T09:41:08.697Z,101409.03
2023-05-03T09:42:13.161Z,101407.08
2023-05-03T09:44:19.591Z,101399.30
2023-05-03T09:45:25.459Z,101402.30
2023-05-03T09:46:30.319Z,101404.54
2023-05-03T09:47:51.955Z,101400.34
2023-05-03T09:49:21.025Z,101402.82
2023-05-03T09:50:24.656Z,101402.41
2023-05-03T09:51:28.267Z,101405.33
2023-05-03T09:52:31.381Z,101408.33
2023-05-03T09:53:36.085Z,101416.55
2023-05-03T09:54:39.508Z,101408.61
2023-05-03T09:55:42.498Z,101409.70
2023-05-03T09:56:47.307Z,101407.98
2023-05-03T09:57:55.158Z,101411.61
2023-05-03T09:58:59.013Z,101412.59
2023-05-03T10:00:01.983Z,101415.07
2023-05-03T10:01:16.382Z,101413.93
2023-05-03T10:02:19.877Z,101411.52
2023-05-03T10:03:38.179Z,101411.50
2023-05-03T10:04:51.330Z,101409.16
2023-05-03T10:05:54.864Z,101403.83
2023-05-03T10:07:06.779Z,101409.83
2023-05-03T10:08:12.698Z,101408.33
2023-05-03T10:09:21.610Z,101408.89
2023-05-03T10:10:25.000Z,101408.96
2023-05-03T10:11:28.922Z,101407.77
2023-05-03T10:12:34.803Z,101408.98
2023-05-03T10:13:38.151Z,101410.67
2023-05-03T10:14:42.805Z,101412.63
2023-05-03T10:15:46.649Z,101411.74
2023-05-03T10:16:51.986Z,101416.69
2023-05-03T10:17:58.103Z,101412.79
2023-05-03T10:19:14.648Z,101413.55
2023-05-03T10:20:43.640Z,101412.27
2023-05-03T10:21:57.237Z,101412.26
2023-05-03T10:23:10.201Z,101409.70
2023-05-03T10:24:17.460Z,101405.92
2023-05-03T10:25:20.370Z,101406.48
2023-05-03T10:26:25.008Z,101402.70
2023-05-03T10:27:46.269Z,101403.67
2023-05-03T10:28:49.465Z,101400.95
2023-05-03T10:29:53.804Z,101402.40
2023-05-03T10:30:56.845Z,101399.14
2023-05-03T10:32:00.047Z,101402.81
2023-05-03T10:33:28.860Z,101400.83
2023-05-03T10:34:35.712Z,101399.10
2023-05-03T10:35:42.969Z,101404.48
2023-05-03T10:36:52.667Z,101400.45
2023-05-03T10:37:59.000Z,101396.38
2023-05-03T10:39:03.619Z,101398.09
2023-05-03T10:40:14.802Z,101400.67
2023-05-03T10:41:25.034Z,101398.11
2023-05-03T10:42:27.889Z,101404.42
2023-05-03T10:43:33.677Z,101405.19
2023-05-03T10:44:55.311Z,101406.05
2023-05-03T10:46:03.219Z,101407.44
2023-05-03T10:47:22.737Z,101411.10
2023-05-03T10:48:26.678Z,101408.73
2023-05-03T10:49:29.581Z,101408.92
2023-05-03T10:50:32.502Z,101411.02
2023-05-03T10:51:37.686Z,101411.85
2023-05-03T10:52:40.927Z,101406.52
2023-05-03T10:53:45.053Z,101405.92
2023-05-03T10:54:47.996Z,101405.94
2023-05-03T10:56:11.063Z,101401.54
2023-05-03T10:57:14.032Z,101403.02
2023-05-03T10:58:17.302Z,101406.33
2023-05-03T10:59:21.145Z,101401.26
2023-05-03T11:00:34.069Z,101400.91
2023-05-03T11:01:37.477Z,101404.95
2023-05-03T11:03:08.586Z,101405.08
2023-05-03T11:04:19.832Z,101408.70
2023-05-03T11:05:24.870Z,101404.30
2023-05-03T11:06:31.584Z,101400.20
2023-05-03T11:07:34.911Z,101405.50
2023-05-03T11:08:38.067Z,101409.43
2023-05-03T11:09:41.260Z,101411.73
2023-05-03T11:10:45.523Z,101404.61
2023-05-03T11:11:48.388Z,101406.62
2023-05-03T11:12:51.262Z,101408.74
2023-05-03T11:13:54.592Z,101410.44
2023-05-03T11:14:57.518Z,101415.11
2023-05-03T11:16:00.892Z,101411.49
2023-05-03T11:17:04.040Z,101412.14
2023-05-03T11:18:08.705Z,101407.11
2023-05-03T11:19:12.068Z,101408.31
2023-05-03T11:20:15.009Z,101406.86
2023-05-03T11:21:19.033Z,101407.73
2023-05-03T11:22:22.178Z,101411.10
2023-05-03T11:23:28.285Z,101407.43
2023-05-03T11:24:31.164Z,101411.02
2023-05-03T11:25:34.733Z,101412.31
2023-05-03T11:26:40.809Z,101411.84
2023-05-03T11:27:45.131Z,101415.62
2023-05-03T11:28:49.529Z,101415.54
2023-05-03T11:29:53.206Z,101411.15
2023-05-03T11:30:57.488Z,101412.60
2023-05-03T11:32:00.838Z,101414.41
2023-05-03T11:33:03.885Z,101407.19
2023-05-03T11:34:06.938Z,101409.17
2023-05-03T11:35:11.002Z,101404.08
2023-05-03T11:36:14.986Z,101401.48
2023-05-03T11:37:18.080Z,101406.19
2023-05-03T11:38:21.258Z,101403.84
2023-05-03T11:39:24.051Z,101409.07
2023-05-03T11:40:26.943Z,101410.10
2023-05-03T11:41:29.831Z,101417.48
2023-05-03T11:42:32.706Z,101413.34
2023-05-03T11:43:41.266Z,101413.64
2023-05-03T11:44:44.340Z,101413.92
2023-05-03T11:45:50.785Z,101413.89
2023-05-03T11:46:55.148Z,101410.58
2023-05-03T11:47:59.319Z,101408.48
2023-05-03T11:49:03.184Z,101413.06
2023-05-03T11:50:06.586Z,101413.64
2023-05-03T11:51:12.594Z,101411.23
2023-05-03T11:52:21.133Z,101415.94
2023-05-03T11:53:25.803Z,101413.34
2023-05-03T11:54:29.868Z,101411.20
2023-05-03T11:55:32.704Z,101411.73
2023-05-03T11:56:35.657Z,101407.89
2023-05-03T11:57:38.980Z,101407.08
2023-05-03T11:58:57.114Z,101406.80
2023-05-03T12:00:18.950Z,101405.62
2023-05-03T12:01:23.281Z,101409.08
2023-05-03T12:02:27.451Z,101403.85
2023-05-03T12:03:36.137Z,101409.17
2023-05-03T12:04:43.173Z,101408.71
2023-05-03T12:05:48.171Z,101406.36
2023-05-03T12:06:54.855Z,101405.27
2023-05-03T12:07:59.739Z,101410.45
2023-05-03T12:09:05.626Z,101410.98
2023-05-03T12:10:23.890Z,101412.23
2023-05-03T12:11:32.188Z,101413.37
2023-05-03T12:12:38.354Z,101416.16
2023-05-03T12:13:44.760Z,101413.17
2023-05-03T12:15:04.506Z,101414.69
2023-05-03T12:16:13.659Z,101413.80
2023-05-03T12:17:37.363Z,101417.48
2023-05-03T12:19:03.411Z,101416.73
2023-05-03T12:21:46.967Z,101414.20
2023-05-03T12:23:16.695Z,101413.03
2023-05-03T12:24:20.753Z,101410.09
2023-05-03T12:25:26.407Z,101407.84
2023-05-03T12:26:29.946Z,101403.83